createdAt,value
2023-04-02T00:01:02.419Z,42.58
2023-04-02T00:03:42.460Z,38.70
2023-04-02T00:06:32.965Z,38.40
2023-04-02T00:09:04.728Z,40.20
2023-04-02T00:11:41.308Z,38.03
2023-04-02T00:14:21.831Z,37.28
2023-04-02T00:16:48.647Z,41.67
2023-04-02T00:19:23.236Z,40.92
2023-04-02T00:21:52.269Z,35.83
2023-04-02T00:24:22.053Z,38.83
2023-04-02T00:26:50.815Z,39.63
2023-04-02T00:29:19.341Z,36.80
2023-04-02T00:31:53.928Z,35.80
2023-04-02T00:36:59.484Z,37.67
2023-04-02T00:39:29.836Z,40.70
2023-04-02T00:42:07.781Z,37.15
2023-04-02T00:44:38.652Z,44.53
2023-04-02T00:47:15.680Z,43.65
2023-04-02T00:49:43.141Z,41.22
2023-04-02T00:52:16.507Z,48.97
2023-04-02T00:55:07.944Z,48.83
2023-04-02T00:57:35.069Z,45.47
2023-04-02T01:00:13.946Z,48.80
2023-04-02T01:02:41.506Z,47.83
2023-04-02T01:05:17.670Z,47.88
2023-04-02T01:08:16.877Z,46.28
2023-04-02T01:11:01.671Z,45.58
2023-04-02T01:13:42.306Z,43.58
2023-04-02T01:16:30.506Z,44.78
2023-04-02T01:19:35.618Z,44.83
2023-04-02T01:22:19.443Z,44.15
2023-04-02T01:24:47.356Z,45.97
2023-04-02T01:27:29.519Z,49.05
2023-04-02T01:29:58.659Z,47.10
2023-04-02T01:32:28.599Z,52.30
2023-04-02T01:34:56.195Z,50.00
2023-04-02T01:37:44.959Z,51.15
2023-04-02T01:40:47.025Z,51.95
2023-04-02T01:43:23.208Z,53.45
2023-04-02T01:45:50.251Z,52.97
2023-04-02T01:48:24.792Z,62.08
2023-04-02T01:53:25.135Z,50.08
2023-04-02T01:56:00.803Z,51.40
2023-04-02T01:58:31.744Z,54.15
2023-04-02T02:01:06.011Z,51.22
2023-04-02T02:03:33.818Z,53.80
2023-04-02T02:06:02.138Z,51.40
2023-04-02T02:08:31.417Z,54.15
2023-04-02T02:10:58.511Z,49.33
2023-04-02T02:13:25.459Z,46.55
2023-04-02T02:15:52.348Z,44.03
2023-04-02T02:18:23.481Z,44.53
2023-04-02T02:20:52.304Z,52.78
2023-04-02T02:23:20.812Z,44.33
2023-04-02T02:25:48.006Z,42.50
2023-04-02T02:28:17.562Z,44.20
2023-04-02T02:30:49.469Z,41.58
2023-04-02T02:33:28.938Z,45.15
2023-04-02T02:36:01.124Z,46.92
2023-04-02T02:38:48.993Z,43.80
2023-04-02T02:41:26.567Z,48.22
2023-04-02T02:44:29.763Z,48.03
2023-04-02T02:47:01.580Z,49.92
2023-04-02T02:49:36.065Z,55.42
2023-04-02T02:52:08.451Z,50.78
2023-04-02T02:54:43.215Z,51.53
2023-04-02T02:57:14.284Z,53.03
2023-04-02T02:59:42.419Z,53.40
2023-04-02T03:02:09.108Z,52.05
2023-04-02T03:04:36.169Z,55.67
2023-04-02T03:07:05.957Z,53.13
2023-04-02T03:10:09.939Z,53.88
2023-04-02T03:12:41.651Z,53.05
2023-04-02T03:15:16.578Z,51.97
2023-04-02T03:17:49.709Z,53.58
2023-04-02T03:20:36.469Z,52.03
2023-04-02T03:23:13.616Z,51.58
2023-04-02T03:25:46.342Z,49.30
2023-04-02T03:28:30.392Z,47.15
2023-04-02T03:31:21.856Z,46.33
2023-04-02T03:33:55.787Z,46.80
2023-04-02T03:36:43.599Z,46.83
2023-04-02T03:39:25.334Z,45.70
2023-04-02T03:42:15.698Z,46.35
2023-04-02T03:44:55.396Z,46.08
2023-04-02T03:47:24.816Z,46.85
2023-04-02T03:50:01.425Z,45.72
2023-04-02T03:52:30.051Z,46.72
2023-04-02T03:54:59.352Z,45.60
2023-04-02T03:57:42.764Z,47.33
2023-04-02T04:00:21.280Z,45.45
2023-04-02T04:02:52.826Z,45.20
2023-04-02T04:05:32.019Z,45.25
2023-04-02T04:08:03.503Z,44.72
2023-04-02T04:10:31.174Z,45.55
2023-04-02T04:13:07.095Z,47.85
2023-04-02T04:15:39.728Z,47.53
2023-04-02T04:18:43.047Z,48.20
2023-04-02T04:21:29.824Z,45.40
2023-04-02T04:24:03.732Z,46.83
2023-04-02T04:26:53.586Z,50.55
2023-04-02T04:29:40.782Z,48.55
2023-04-02T04:32:27.131Z,49.33
2023-04-02T04:35:01.136Z,48.97
2023-04-02T04:37:35.223Z,48.33
2023-04-02T04:40:17.488Z,47.40
2023-04-02T04:42:45.767Z,47.15
2023-04-02T04:45:43.460Z,47.92
2023-04-02T04:48:23.081Z,47.53
2023-04-02T04:51:01.918Z,47.15
2023-04-02T04:53:30.309Z,47.42
2023-04-02T04:56:09.165Z,48.65
2023-04-02T04:58:49.729Z,48.10
2023-04-02T05:01:28.549Z,48.83
2023-04-02T05:04:00.072Z,46.47
2023-04-02T05:06:43.782Z,47.22
2023-04-02T05:09:41.419Z,46.08
2023-04-02T05:12:35.886Z,47.08
2023-04-02T05:15:16.861Z,48.07
2023-04-02T05:18:10.706Z,49.42
2023-04-02T05:20:53.557Z,48.17
2023-04-02T05:23:27.100Z,49.88
2023-04-02T05:26:16.817Z,51.58
2023-04-02T05:28:51.777Z,50.42
2023-04-02T05:31:29.747Z,52.50
2023-04-02T05:33:57.142Z,53.30
2023-04-02T05:36:27.019Z,55.95
2023-04-02T05:38:56.391Z,52.03
2023-04-02T05:41:36.960Z,51.60
2023-04-02T05:44:30.182Z,51.03
2023-04-02T05:47:12.499Z,50.20
2023-04-02T05:49:39.320Z,52.15
2023-04-02T05:52:12.300Z,48.70
2023-04-02T05:54:47.496Z,47.72
2023-04-02T05:57:20.508Z,46.85
2023-04-02T05:59:53.568Z,45.67
2023-04-02T06:02:31.268Z,40.65
2023-04-02T06:05:04.296Z,38.22
2023-04-02T06:08:03.393Z,35.55
2023-04-02T06:10:34.157Z,34.60
2023-04-02T06:13:05.959Z,33.97
2023-04-02T06:15:35.109Z,31.95
2023-04-02T06:18:16.872Z,31.60
2023-04-02T06:20:43.673Z,33.70
2023-04-02T06:23:32.833Z,34.00
2023-04-02T06:26:04.444Z,31.10
2023-04-02T06:29:11.057Z,29.38
2023-04-02T06:31:50.669Z,28.23
2023-04-02T06:34:23.328Z,27.85
2023-04-02T06:36:51.944Z,26.05
2023-04-02T06:39:23.756Z,27.55
2023-04-02T06:42:07.632Z,28.83
2023-04-02T06:44:38.467Z,26.33
2023-04-02T06:47:25.395Z,27.50
2023-04-02T06:50:12.639Z,27.90
2023-04-02T06:52:58.850Z,27.55
2023-04-02T06:56:03.731Z,26.40
2023-04-02T06:58:30.635Z,27.05
2023-04-02T07:00:57.705Z,27.50
2023-04-02T07:03:27.612Z,29.65
2023-04-02T07:05:55.060Z,28.27
2023-04-02T07:08:22.144Z,30.83
2023-04-02T07:10:48.942Z,30.10
2023-04-02T07:13:17.613Z,30.70
2023-04-02T07:15:50.219Z,28.85
2023-04-02T07:18:27.658Z,30.70
2023-04-02T07:20:54.755Z,33.80
2023-04-02T07:23:21.524Z,34.72
2023-04-02T07:25:50.516Z,35.30
2023-04-02T07:28:17.465Z,37.17
2023-04-02T07:30:45.516Z,38.67
2023-04-02T07:33:21.057Z,39.03
2023-04-02T07:35:48.981Z,30.00
2023-04-02T07:38:16.120Z,35.15
2023-04-02T07:40:42.853Z,33.40
2023-04-02T07:43:09.703Z,35.10
2023-04-02T07:45:36.611Z,34.15
2023-04-02T07:48:11.463Z,34.38
2023-04-02T07:50:38.543Z,33.55
2023-04-02T07:53:07.119Z,34.67
2023-04-02T07:55:33.943Z,35.92
2023-04-02T07:58:00.792Z,37.15
2023-04-02T08:00:28.996Z,40.13
2023-04-02T08:02:56.288Z,36.08
2023-04-02T08:05:23.372Z,32.03
2023-04-02T08:07:54.887Z,33.47
2023-04-02T08:10:21.833Z,30.58
2023-04-02T08:12:49.599Z,31.92
2023-04-02T08:15:16.932Z,30.33
2023-04-02T08:17:44.402Z,27.95
2023-04-02T08:20:22.321Z,25.20
2023-04-02T08:22:50.091Z,25.67
2023-04-02T08:25:16.889Z,26.73
2023-04-02T08:27:46.468Z,26.65
2023-04-02T08:30:13.835Z,23.45
2023-04-02T08:32:41.534Z,23.42
2023-04-02T08:35:11.056Z,24.95
2023-04-02T08:37:37.897Z,21.67
2023-04-02T08:40:07.258Z,20.83
2023-04-02T08:42:39.717Z,20.85
2023-04-02T08:45:25.049Z,19.73
2023-04-02T08:47:56.255Z,19.05
2023-04-02T08:50:31.069Z,19.90
2023-04-02T08:53:00.574Z,18.80
2023-04-02T08:55:35.026Z,18.73
2023-04-02T08:58:20.354Z,17.73
2023-04-02T09:00:53.612Z,17.92
2023-04-02T09:03:29.830Z,17.80
2023-04-02T09:05:57.652Z,17.02
2023-04-02T09:08:27.096Z,18.35
2023-04-02T09:11:02.320Z,17.10
2023-04-02T09:13:33.048Z,18.65
2023-04-02T09:16:11.780Z,16.92
2023-04-02T09:18:39.357Z,17.88
2023-04-02T09:21:21.156Z,18.33
2023-04-02T09:23:48.906Z,16.15
2023-04-02T09:26:30.831Z,16.48
2023-04-02T09:29:12.496Z,15.75
2023-04-02T09:31:43.830Z,15.73
2023-04-02T09:34:33.712Z,16.30
2023-04-02T09:37:18.494Z,16.98
2023-04-02T09:42:35.101Z,15.60
2023-04-02T09:45:18.067Z,18.00
2023-04-02T09:47:44.748Z,16.70
2023-04-02T09:50:34.833Z,16.05
2023-04-02T09:53:31.356Z,17.83
2023-04-02T09:56:24.383Z,17.42
2023-04-02T09:59:12.464Z,17.85
2023-04-02T10:01:57.912Z,17.80
2023-04-02T10:04:46.887Z,16.27
2023-04-02T10:07:41.354Z,16.55
2023-04-02T10:10:21.106Z,17.55
2023-04-02T10:13:23.068Z,18.42
2023-04-02T10:16:09.931Z,17.25
2023-04-02T10:18:44.448Z,18.85
2023-04-02T10:23:39.959Z,17.23
2023-04-02T10:26:51.173Z,17.40
2023-04-02T10:29:52.807Z,17.90
2023-04-02T10:32:30.691Z,16.33
2023-04-02T10:35:27.355Z,17.58
2023-04-02T10:37:59.790Z,16.65
2023-04-02T10:40:29.571Z,17.63
2023-04-02T10:43:14.646Z,16.80
2023-04-02T10:45:49.222Z,17.70
2023-04-02T10:48:24.766Z,18.13
2023-04-02T10:51:02.523Z,18.55
2023-04-02T10:53:59.173Z,17.65
2023-04-02T10:56:28.532Z,19.15
2023-04-02T10:59:05.494Z,17.65
2023-04-02T11:01:34.782Z,17.08
2023-04-02T11:04:38.184Z,16.55
2023-04-02T11:07:14.599Z,16.25
2023-04-02T11:09:46.098Z,17.77
2023-04-02T11:12:25.909Z,17.52
2023-04-02T11:14:55.882Z,18.83
2023-04-02T11:17:23.438Z,17.00
2023-04-02T11:19:50.171Z,16.80
2023-04-02T11:22:17.622Z,16.83
2023-04-02T11:24:54.817Z,17.90
2023-04-02T11:27:30.755Z,15.00
2023-04-02T11:30:24.119Z,16.92
2023-04-02T11:32:51.270Z,16.20
2023-04-02T11:35:33.215Z,17.17
2023-04-02T11:38:22.540Z,16.48
2023-04-02T11:40:56.828Z,19.13
2023-04-02T11:46:16.636Z,18.73
2023-04-02T11:48:43.710Z,16.52
2023-04-02T11:51:22.829Z,17.83
2023-04-02T11:53:51.623Z,17.10
2023-04-02T11:56:32.656Z,16.98
2023-04-02T11:59:27.122Z,18.30
2023-04-02T12:02:12.817Z,20.20
2023-04-02T12:04:59.638Z,17.83
2023-04-02T12:07:35.264Z,16.52
2023-04-02T12:10:20.306Z,18.73
2023-04-02T12:12:47.181Z,17.38
2023-04-02T12:15:44.681Z,16.17
2023-04-02T12:18:17.492Z,16.23
2023-04-02T12:20:53.006Z,18.10
2023-04-02T12:23:29.626Z,15.38
2023-04-02T12:26:01.754Z,13.43
2023-04-02T12:28:30.024Z,13.32
2023-04-02T12:31:18.735Z,11.82
2023-04-02T12:33:45.862Z,11.82
2023-04-02T12:36:14.207Z,10.23
2023-04-02T12:38:49.956Z,10.43
2023-04-02T12:41:35.961Z,10.45
2023-04-02T12:44:15.560Z,10.10
2023-04-02T12:46:43.536Z,10.20
2023-04-02T12:49:38.809Z,10.02
2023-04-02T12:52:14.769Z,9.77
2023-04-02T12:54:46.660Z,9.30
2023-04-02T12:57:25.836Z,9.75
2023-04-02T12:59:57.392Z,10.20
2023-04-02T13:02:26.985Z,11.73
2023-04-02T13:05:01.937Z,10.60
2023-04-02T13:07:33.668Z,9.00
2023-04-02T13:10:03.519Z,9.70
2023-04-02T13:12:36.346Z,9.90
2023-04-02T13:15:09.127Z,8.13
2023-04-02T13:18:02.550Z,8.02
2023-04-02T13:20:40.100Z,7.20
2023-04-02T13:23:46.159Z,8.30
2023-04-02T13:26:25.895Z,8.00
2023-04-02T13:29:17.005Z,8.00
2023-04-02T13:31:43.901Z,7.93
2023-04-02T13:34:10.654Z,7.50
2023-04-02T13:36:37.507Z,7.53
2023-04-02T13:39:04.962Z,7.53
2023-04-02T13:41:36.560Z,7.85
2023-04-02T13:44:04.096Z,7.32
2023-04-02T13:46:33.121Z,7.63
2023-04-02T13:49:00.153Z,7.80
2023-04-02T13:51:36.140Z,7.80
2023-04-02T13:54:03.924Z,7.90
2023-04-02T13:56:31.157Z,8.00
2023-04-02T13:58:57.763Z,7.97
2023-04-02T14:01:25.336Z,8.13
2023-04-02T14:03:54.138Z,7.90
2023-04-02T14:06:23.736Z,7.80
2023-04-02T14:08:59.616Z,7.80
2023-04-02T14:11:41.335Z,8.10
2023-04-02T14:14:33.834Z,8.18
2023-04-02T14:17:38.232Z,7.85
2023-04-02T14:20:17.355Z,7.63
2023-04-02T14:23:05.621Z,7.85
2023-04-02T14:25:43.340Z,8.00
2023-04-02T14:28:23.754Z,8.50
2023-04-02T14:31:05.514Z,8.88
2023-04-02T14:33:37.824Z,8.35
2023-04-02T14:36:12.900Z,9.10
2023-04-02T14:39:03.023Z,9.45
2023-04-02T14:41:44.489Z,9.60
2023-04-02T14:44:12.023Z,9.98
2023-04-02T14:46:39.573Z,10.18
2023-04-02T14:49:08.952Z,10.45
2023-04-02T14:51:49.961Z,11.38
2023-04-02T14:54:59.165Z,9.75
2023-04-02T14:57:44.668Z,10.90
2023-04-02T15:00:28.839Z,11.00
2023-04-02T15:03:16.681Z,10.50
2023-04-02T15:05:47.996Z,10.82
2023-04-02T15:09:02.083Z,10.85
2023-04-02T15:11:41.866Z,11.07
2023-04-02T15:14:26.210Z,10.52
2023-04-02T15:16:53.015Z,10.75
2023-04-02T15:19:20.023Z,11.20
2023-04-02T15:22:11.120Z,10.27
2023-04-02T15:25:03.120Z,10.82
2023-04-02T15:28:05.615Z,12.10
2023-04-02T15:30:45.333Z,12.60
2023-04-02T15:33:30.270Z,12.63
2023-04-02T15:36:17.787Z,13.82
2023-04-02T15:38:49.441Z,14.82
2023-04-02T15:41:26.267Z,18.60
2023-04-02T15:44:15.921Z,15.55
2023-04-02T15:47:06.229Z,13.40
2023-04-02T15:49:57.442Z,12.07
2023-04-02T15:52:58.766Z,14.85
2023-04-02T15:55:46.049Z,15.48
2023-04-02T15:58:39.434Z,16.55
2023-04-02T16:01:25.820Z,17.77
2023-04-02T16:04:19.925Z,15.07
2023-04-02T16:07:05.941Z,12.30
2023-04-02T16:09:48.595Z,12.63
2023-04-02T16:12:20.495Z,16.63
2023-04-02T16:14:49.476Z,20.95
2023-04-02T16:17:32.616Z,25.20
2023-04-02T16:20:15.080Z,74.45
2023-04-02T16:22:57.294Z,122.18
2023-04-02T16:25:31.469Z,129.10
2023-04-02T16:28:35.811Z,98.97
2023-04-02T16:31:20.886Z,94.65
2023-04-02T16:34:15.469Z,76.90
2023-04-02T16:37:19.314Z,50.92
2023-04-02T16:40:07.499Z,48.10
2023-04-02T16:42:49.038Z,49.80
2023-04-02T16:45:34.651Z,52.15
2023-04-02T16:48:04.128Z,36.38
2023-04-02T16:51:15.671Z,27.88
2023-04-02T16:54:06.485Z,23.60
2023-04-02T16:56:59.068Z,23.25
2023-04-02T16:59:45.839Z,24.30
2023-04-02T17:02:21.565Z,23.98
2023-04-02T17:04:51.361Z,23.77
2023-04-02T17:07:27.314Z,25.90
2023-04-02T17:10:03.180Z,32.22
2023-04-02T17:12:39.807Z,41.10
2023-04-02T17:15:27.852Z,52.15
2023-04-02T17:18:00.832Z,56.28
2023-04-02T17:20:28.379Z,78.28
2023-04-02T17:22:56.127Z,88.88
2023-04-02T17:25:26.899Z,102.22
2023-04-02T17:27:55.977Z,108.45
2023-04-02T17:30:42.267Z,138.65
2023-04-02T17:33:15.347Z,149.77
2023-04-02T17:36:09.615Z,133.98
2023-04-02T17:39:08.413Z,78.33
2023-04-02T17:41:49.546Z,71.50
2023-04-02T17:44:26.822Z,73.88
2023-04-02T17:47:15.056Z,78.15
2023-04-02T17:49:53.190Z,62.88
2023-04-02T17:52:37.962Z,46.17
2023-04-02T17:55:07.205Z,49.35
2023-04-02T17:58:05.193Z,46.50
2023-04-02T18:01:00.942Z,44.53
2023-04-02T18:04:04.236Z,43.80
2023-04-02T18:06:37.933Z,40.33
2023-04-02T18:09:22.897Z,46.40
2023-04-02T18:14:33.411Z,24.75
2023-04-02T18:17:24.641Z,25.10
2023-04-02T18:20:17.742Z,20.88
2023-04-02T18:23:00.544Z,21.67
2023-04-02T18:26:16.444Z,22.75
2023-04-02T18:28:45.994Z,21.48
2023-04-02T18:31:28.226Z,20.50
2023-04-02T18:34:19.828Z,19.75
2023-04-02T18:37:01.492Z,18.40
2023-04-02T18:39:45.398Z,18.42
2023-04-02T18:42:43.608Z,18.80
2023-04-02T18:45:24.040Z,18.05
2023-04-02T18:47:59.471Z,18.98
2023-04-02T18:50:28.900Z,17.67
2023-04-02T18:52:55.623Z,18.27
2023-04-02T18:55:32.915Z,17.77
2023-04-02T18:58:22.854Z,17.92
2023-04-02T19:00:50.614Z,17.00
2023-04-02T19:03:26.143Z,18.00
2023-04-02T19:06:03.002Z,18.48
2023-04-02T19:08:38.507Z,17.52
2023-04-02T19:11:12.038Z,18.00
2023-04-02T19:13:38.781Z,19.33
2023-04-02T19:16:17.276Z,18.30
2023-04-02T19:19:13.132Z,19.65
2023-04-02T19:21:53.864Z,18.77
2023-04-02T19:24:42.484Z,19.27
2023-04-02T19:27:33.901Z,21.02
2023-04-02T19:30:15.797Z,24.33
2023-04-02T19:33:06.537Z,23.30
2023-04-02T19:35:47.979Z,26.27
2023-04-02T19:38:20.463Z,26.98
2023-04-02T19:40:59.007Z,25.30
2023-04-02T19:43:25.868Z,25.98
2023-04-02T19:45:54.448Z,24.90
2023-04-02T19:48:32.401Z,25.50
2023-04-02T19:50:59.094Z,28.15
2023-04-02T19:53:25.640Z,31.33
2023-04-02T19:55:52.409Z,32.80
2023-04-02T19:58:29.130Z,34.05
2023-04-02T20:00:56.200Z,34.15
2023-04-02T20:03:23.390Z,37.25
2023-04-02T20:05:50.722Z,37.40
2023-04-02T20:08:17.652Z,39.05
2023-04-02T20:10:44.991Z,37.83
2023-04-02T20:13:11.858Z,41.80
2023-04-02T20:15:39.920Z,43.50
2023-04-02T20:18:07.706Z,44.70
2023-04-02T20:20:34.505Z,44.47
2023-04-02T20:23:01.370Z,44.58
2023-04-02T20:25:27.928Z,44.95
2023-04-02T20:27:54.541Z,44.95
2023-04-02T20:30:21.104Z,44.85
2023-04-02T20:32:47.751Z,48.38
2023-04-02T20:35:14.423Z,45.70
2023-04-02T20:37:41.970Z,45.33
2023-04-02T20:40:10.012Z,43.20
2023-04-02T20:42:36.795Z,43.15
2023-04-02T20:45:05.218Z,44.72
2023-04-02T20:47:32.198Z,45.85
2023-04-02T20:49:58.753Z,46.35
2023-04-02T20:52:25.424Z,47.60
2023-04-02T20:54:53.259Z,47.97
2023-04-02T20:57:21.882Z,47.13
2023-04-02T20:59:48.790Z,47.30
2023-04-02T21:02:15.546Z,47.83
2023-04-02T21:04:42.155Z,48.50
2023-04-02T21:07:08.689Z,48.38
2023-04-02T21:09:35.424Z,49.13
2023-04-02T21:12:01.957Z,48.90
2023-04-02T21:14:31.344Z,50.35
2023-04-02T21:16:57.922Z,53.35
2023-04-02T21:19:24.506Z,53.30
2023-04-02T21:21:51.071Z,53.03
2023-04-02T21:24:17.628Z,54.58
2023-04-02T21:26:46.446Z,54.90
2023-04-02T21:29:13.562Z,53.75
2023-04-02T21:31:41.097Z,54.67
2023-04-02T21:34:09.254Z,57.10
2023-04-02T21:36:39.599Z,56.22
2023-04-02T21:39:12.232Z,56.45
2023-04-02T21:41:41.741Z,54.50
2023-04-02T21:44:10.589Z,56.30
2023-04-02T21:46:39.230Z,56.33
2023-04-02T21:49:08.354Z,55.85
2023-04-02T21:51:37.536Z,56.20
2023-04-02T21:54:04.768Z,56.97
2023-04-02T21:56:34.499Z,57.47
2023-04-02T21:59:02.247Z,56.58
2023-04-02T22:01:32.008Z,52.00
2023-04-02T22:04:01.387Z,53.10
2023-04-02T22:06:30.969Z,52.30
2023-04-02T22:09:00.427Z,52.40
2023-04-02T22:11:33.630Z,52.17
2023-04-02T22:14:02.915Z,53.25
2023-04-02T22:16:31.304Z,54.53
2023-04-02T22:19:01.477Z,54.25
2023-04-02T22:21:32.475Z,53.45
2023-04-02T22:24:01.296Z,53.05
2023-04-02T22:26:28.274Z,54.75
2023-04-02T22:28:54.887Z,53.30
2023-04-02T22:31:25.104Z,57.83
2023-04-02T22:33:53.048Z,54.35
2023-04-02T22:36:20.815Z,49.90
2023-04-02T22:38:47.692Z,52.80
2023-04-02T22:41:17.004Z,55.35
2023-04-02T22:43:44.952Z,54.83
2023-04-02T22:46:14.171Z,57.58
2023-04-02T22:48:41.298Z,54.38
2023-04-02T22:51:09.495Z,56.25
2023-04-02T22:53:36.999Z,52.22
2023-04-02T22:56:10.416Z,54.40
2023-04-02T22:58:37.919Z,52.97
2023-04-02T23:01:11.837Z,56.10
2023-04-02T23:03:38.630Z,55.88
2023-04-02T23:06:07.802Z,55.25
2023-04-02T23:08:35.465Z,54.95
2023-04-02T23:11:10.546Z,52.38
2023-04-02T23:13:38.124Z,52.17
2023-04-02T23:16:07.671Z,49.13
2023-04-02T23:18:35.800Z,48.08
2023-04-02T23:21:02.821Z,46.40
2023-04-02T23:23:31.395Z,41.80
2023-04-02T23:26:04.990Z,39.55
2023-04-02T23:28:31.577Z,39.25
2023-04-02T23:30:58.214Z,41.45
2023-04-02T23:33:24.788Z,42.55
2023-04-02T23:35:51.415Z,45.10
2023-04-02T23:38:18.008Z,48.88
2023-04-02T23:40:44.609Z,57.05
2023-04-02T23:43:11.363Z,51.90
2023-04-02T23:45:38.188Z,40.88
2023-04-02T23:48:05.164Z,43.80
2023-04-02T23:50:31.915Z,43.92
2023-04-02T23:52:58.467Z,44.22
2023-04-02T23:55:25.300Z,46.95
2023-04-02T23:57:52.018Z,47.65
